EFTP/TMP METAR and TAF weather

Enter ICAO airport designator
Station Type Date Time Source
EFTP METAR 2019/04/21 22:20 UTC NOAA

EFTP 212220Z AUTO 18006KT CAVOK 08/M02 Q1023


Station Type Date Time Source
EFTP Decoded METAR 2019/04/21 22:20 UTC NOAA

Tampere / Pirkkala, Finland (EFTP) 61-25N 023-35E 112M
Apr 21, 2019 - 06:20 PM EDT / 2019.04.21 2220 UTC
Wind: from the S (180 degrees) at 7 MPH (6 KT):0
Visibility: greater than 7 mile(s):0
Temperature: 46 F (8 C)
Dew Point: 28 F (-2 C)
Relative Humidity: 49%
Pressure (altimeter): 30.21 in. Hg (1023 hPa)
ob: EFTP 212220Z AUTO 18006KT CAVOK 08/M02 Q1023
cycle: 22

Station Type Date Time Source
EFTP TAF 2019/04/21 21:44 UTC NOAA

TAF EFTP 212031Z 2121/2221 20007KT CAVOK

Example: see airport list